Latest Weather Observations for South Channel Island

IDV60901

Issued at 8:21 am EST Tuesday 17 September 2019 (issued every 10 minutes, with the page automatically refreshed every 10 minutes)

About weather observations | Map of Melbourne area stations | Latest observations for Melbourne area | Other Formats
Station Details ID: 086344 Name: SOUTH CHANNEL ISLAND Lat: -38.31 Lon: 144.80 Height: 9.0 m
Data from the previous 72 hours. | See also: Recent months at South Channel Island
Date/Time
EST
Temp
°C
App
Temp
°C
Dew
Point
°C
Rel
Hum
%
Delta-T
°C
Wind Press
QNH
hPa
Press
MSL
hPa
Rain since
9am
mm
Dir  Spd
km/h
Gust
km/h
Spd
kts
Gust
kts
17/08:00am - - - - - SE 17 20 9 11 - - -
17/07:30am - - - - - SSE 13 17 7 9 - - -
17/07:00am - - - - - SE 17 26 9 14 - - -
17/06:30am - - - - - SE 17 19 9 10 - - -
17/06:00am - - - - - SE 19 22 10 12 - - -
17/05:30am - - - - - SE 20 26 11 14 - - -
17/05:00am - - - - - SE 20 22 11 12 - - -
17/04:30am - - - - - SE 24 30 13 16 - - -
17/04:00am - - - - - SSE 22 26 12 14 - - -
17/03:30am - - - - - SSE 22 28 12 15 - - -
17/03:00am - - - - - SSE 20 26 11 14 - - -
17/02:30am - - - - - S 26 30 14 16 - - -
17/02:00am - - - - - S 26 32 14 17 - - -
17/01:30am - - - - - S 35 43 19 23 - - -
17/01:00am - - - - - S 32 35 17 19 - - -
17/12:30am - - - - - S 32 37 17 20 - - -
17/12:00am - - - - - S 35 43 19 23 - - -
 
Date/Time
EST
Temp
°C
App
Temp
°C
Dew
Point
°C
Rel
Hum
%
Delta-T
°C
Wind Press
QNH
hPa
Press
MSL
hPa
Rain since
9am
mm
Dir  Spd
km/h
Gust
km/h
Spd
kts
Gust
kts
16/11:30pm - - - - - S 32 39 17 21 - - -
16/11:00pm - - - - - S 32 37 17 20 - - -
16/10:30pm - - - - - S 33 37 18 20 - - -
16/10:00pm - - - - - S 37 46 20 25 - - -
16/09:30pm - - - - - S 33 37 18 20 - - -
16/09:00pm - - - - - S 32 37 17 20 - - -
16/08:30pm - - - - - SSW 28 35 15 19 - - -
16/08:00pm - - - - - SW 33 43 18 23 - - -
16/07:30pm - - - - - SSW 30 50 16 27 - - -
16/07:29pm - - - - - SSW 28 50 15 27 - - -
16/07:00pm - - - - - S 28 33 15 18 - - -
16/06:30pm - - - - - S 17 20 9 11 - - -
16/06:00pm - - - - - S 32 37 17 20 - - -
16/05:30pm - - - - - S 44 54 24 29 - - -
16/05:19pm - - - - - S 39 57 21 31 - - -
16/05:00pm - - - - - SSW 37 46 20 25 - - -
16/04:30pm - - - - - SSW 37 48 20 26 - - -
16/04:00pm - - - - - SSW 35 41 19 22 - - -
16/03:30pm - - - - - SSW 33 48 18 26 - - -
16/03:00pm - - - - - SSW 39 46 21 25 - - -
16/02:30pm - - - - - SSW 41 48 22 26 - - -
16/02:00pm - - - - - SSW 35 43 19 23 - - -
16/01:30pm - - - - - SSW 39 50 21 27 - - -
16/01:00pm - - - - - SSW 43 50 23 27 - - -
16/12:30pm - - - - - SSW 37 44 20 24 - - -
16/12:00pm - - - - - S 35 44 19 24 - - -
16/11:30am - - - - - S 43 50 23 27 - - -
16/11:00am - - - - - SSW 50 59 27 32 - - -
16/10:30am - - - - - SSW 43 52 23 28 - - -
16/10:00am - - - - - SSW 39 48 21 26 - - -
16/09:30am - - - - - SSW 37 43 20 23 - - -
16/09:00am - - - - - SSW 37 48 20 26 - - -
16/08:30am - - - - - SW 43 48 23 26 - - -
16/08:00am - - - - - SW 39 48 21 26 - - -
16/07:30am - - - - - SSW 37 46 20 25 - - -
16/07:00am - - - - - SW 33 39 18 21 - - -
16/06:30am - - - - - SSW 39 44 21 24 - - -
16/06:00am - - - - - SSW 43 50 23 27 - - -
16/05:30am - - - - - SW 35 43 19 23 - - -
16/05:00am - - - - - WSW 30 33 16 18 - - -
16/04:30am - - - - - WSW 28 32 15 17 - - -
16/04:00am - - - - - W 33 39 18 21 - - -
16/03:30am - - - - - W 35 41 19 22 - - -
16/03:00am - - - - - W 28 32 15 17 - - -
16/02:30am - - - - - W 30 35 16 19 - - -
16/02:00am - - - - - W 32 37 17 20 - - -
16/01:52am - - - - - WSW 37 48 20 26 - - -
16/01:30am - - - - - WSW 41 50 22 27 - - -
16/01:00am - - - - - WSW 41 50 22 27 - - -
16/12:30am - - - - - WSW 39 50 21 27 - - -
16/12:00am - - - - - SW 33 39 18 21 - - -
 
Date/Time
EST
Temp
°C
App
Temp
°C
Dew
Point
°C
Rel
Hum
%
Delta-T
°C
Wind Press
QNH
hPa
Press
MSL
hPa
Rain since
9am
mm
Dir  Spd
km/h
Gust
km/h
Spd
kts
Gust
kts
15/11:30pm - - - - - SW 37 44 20 24 - - -
15/11:00pm - - - - - SW 41 48 22 26 - - -
15/10:30pm - - - - - SW 35 41 19 22 - - -
15/10:00pm - - - - - SSW 28 33 15 18 - - -
15/09:48pm - - - - - WSW 39 57 21 31 - - -
15/09:42pm - - - - - WNW 44 57 24 31 - - -
15/09:39pm - - - - - WNW 41 57 22 31 - - -
15/09:30pm - - - - - NW 33 39 18 21 - - -
15/09:00pm - - - - - NNW 28 30 15 16 - - -
15/08:30pm - - - - - N 15 17 8 9 - - -
15/08:00pm - - - - - NNW 33 41 18 22 - - -
15/07:30pm - - - - - NW 37 46 20 25 - - -
15/07:00pm - - - - - NW 33 39 18 21 - - -
15/06:51pm - - - - - WNW 39 50 21 27 - - -
15/06:30pm - - - - - WNW 56 67 30 36 - - -
15/06:13pm - - - - - NW 44 65 24 35 - - -
15/06:00pm - - - - - NW 35 41 19 22 - - -
15/05:30pm - - - - - NNW 28 37 15 20 - - -
15/05:00pm - - - - - N 32 37 17 20 - - -
15/04:30pm - - - - - NW 30 35 16 19 - - -
15/04:00pm - - - - - WNW 39 43 21 23 - - -
15/03:36pm - - - - - NW 35 54 19 29 - - -
15/03:30pm - - - - - NW 32 37 17 20 - - -
15/03:00pm - - - - - N 35 39 19 21 - - -
15/02:30pm - - - - - N 26 32 14 17 - - -
15/02:00pm - - - - - N 26 30 14 16 - - -
15/01:30pm - - - - - N 30 35 16 19 - - -
15/01:00pm - - - - - NNW 20 24 11 13 - - -
15/12:30pm - - - - - N 24 30 13 16 - - -
15/12:00pm - - - - - NW 13 19 7 10 - - -
15/11:30am - - - - - N 28 33 15 18 - - -
15/11:00am - - - - - N 37 46 20 25 - - -
15/10:30am - - - - - N 43 50 23 27 - - -
15/10:00am - - - - - N 48 54 26 29 - - -
15/09:30am - - - - - N 41 46 22 25 - - -
15/09:00am - - - - - N 43 48 23 26 - - -
15/08:30am - - - - - N 44 50 24 27 - - -
15/08:00am - - - - - N 46 52 25 28 - - -
15/07:30am - - - - - N 41 50 22 27 - - -
15/07:00am - - - - - N 35 41 19 22 - - -
15/06:30am - - - - - N 35 41 19 22 - - -
15/06:00am - - - - - N 33 39 18 21 - - -
15/05:30am - - - - - N 35 43 19 23 - - -
15/05:00am - - - - - N 39 44 21 24 - - -
15/04:30am - - - - - N 30 33 16 18 - - -
15/04:00am - - - - - N 30 33 16 18 - - -
15/03:30am - - - - - N 33 35 18 19 - - -
15/03:00am - - - - - N 30 33 16 18 - - -
15/02:30am - - - - - N 30 33 16 18 - - -
15/02:00am - - - - - N 30 35 16 19 - - -
15/01:30am - - - - - N 33 44 18 24 - - -
15/01:00am - - - - - NNE 35 39 19 21 - - -
15/12:30am - - - - - N 28 33 15 18 - - -
15/12:00am - - - - - N 17 22 9 12 - - -
 
Date/Time
EST
Temp
°C
App
Temp
°C
Dew
Point
°C
Rel
Hum
%
Delta-T
°C
Wind Press
QNH
hPa
Press
MSL
hPa
Rain since
9am
mm
Dir  Spd
km/h
Gust
km/h
Spd
kts
Gust
kts
14/11:30pm - - - - - N 20 22 11 12 - - -
14/11:00pm - - - - - N 15 17 8 9 - - -
14/10:30pm - - - - - N 19 20 10 11 - - -
14/10:00pm - - - - - N 22 24 12 13 - - -
14/09:30pm - - - - - NNW 30 32 16 17 - - -
14/09:00pm - - - - - N 24 26 13 14 - - -
14/08:30pm - - - - - N 13 17 7 9 - - -
14/08:00pm - - - - - N 9 13 5 7 - - -
14/07:30pm - - - - - N 11 15 6 8 - - -
14/07:00pm - - - - - N 9 11 5 6 - - -
14/06:30pm - - - - - N 11 11 6 6 - - -
14/06:00pm - - - - - NNE 9 11 5 6 - - -
14/05:30pm - - - - - NNE 15 17 8 9 - - -
14/05:00pm - - - - - N 15 15 8 8 - - -
14/04:30pm - - - - - NNE 19 22 10 12 - - -
14/04:00pm - - - - - NE 22 24 12 13 - - -
14/03:30pm - - - - - NE 22 26 12 14 - - -
14/03:00pm - - - - - NE 20 26 11 14 - - -
14/02:30pm - - - - - NE 15 17 8 9 - - -
14/02:00pm - - - - - NNE 15 17 8 9 - - -
14/01:30pm - - - - - NNE 15 17 8 9 - - -
14/01:00pm - - - - - N 11 13 6 7 - - -
14/12:30pm - - - - - NNE 9 13 5 7 - - -
14/12:00pm - - - - - NW 6 7 3 4 - - -
14/11:30am - - - - - W 9 11 5 6 - - -
14/11:00am - - - - - WNW 15 17 8 9 - - -
14/10:30am - - - - - W 19 19 10 10 - - -
14/10:00am - - - - - WNW 13 15 7 8 - - -
14/09:30am - - - - - WNW 19 20 10 11 - - -
14/09:00am - - - - - WNW 20 24 11 13 - - -
14/08:30am - - - - - WNW 20 26 11 14 - - -

Latest Capital City Observations: Canberra | Sydney | Melbourne | Brisbane | Adelaide | Perth | Hobart | Darwin

Other formats

Comma delimited format used in spreadsheet applications
http://www.bom.gov.au/fwo/IDV60901/IDV60901.94853.axf

JavaScript Object Notation format (JSON) in row-major order
http://www.bom.gov.au/fwo/IDV60901/IDV60901.94853.json

Data quality

Most of these data are generated automatically and are frequently updated. Quality checks on data are not normally performed. It is possible for incorrect values to appear. Refer to information at About Latest Weather Observations and please check the disclaimer before using these data.